sensor_id;sensor_type;location;lat;lon;timestamp;pressure;altitude;pressure_sealevel;temperature;humidity
73860;BME280;62197;51.632;13.700;2023-12-20T00:00:53;99959.06;;;4.77;96.30
73860;BME280;62197;51.632;13.700;2023-12-20T00:03:18;99940.28;;;4.72;96.22
73860;BME280;62197;51.632;13.700;2023-12-20T00:05:44;99948.09;;;4.72;96.13
73860;BME280;62197;51.632;13.700;2023-12-20T00:08:09;99947.28;;;4.71;96.18
73860;BME280;62197;51.632;13.700;2023-12-20T00:10:34;99942.78;;;4.73;96.27
73860;BME280;62197;51.632;13.700;2023-12-20T00:13:00;99942.78;;;4.73;96.15
73860;BME280;62197;51.632;13.700;2023-12-20T00:15:25;99944.66;;;4.71;96.06
73860;BME280;62197;51.632;13.700;2023-12-20T00:17:50;99943.63;;;4.74;96.07
73860;BME280;62197;51.632;13.700;2023-12-20T00:20:16;99943.63;;;4.74;95.99
73860;BME280;62197;51.632;13.700;2023-12-20T00:22:41;99949.03;;;4.71;95.84
73860;BME280;62197;51.632;13.700;2023-12-20T00:25:07;99930.09;;;4.69;96.14
73860;BME280;62197;51.632;13.700;2023-12-20T00:27:32;99932.69;;;4.69;95.95
73860;BME280;62197;51.632;13.700;2023-12-20T00:29:57;99933.75;;;4.66;96.41
73860;BME280;62197;51.632;13.700;2023-12-20T00:32:23;99942.41;;;4.67;96.12
73860;BME280;62197;51.632;13.700;2023-12-20T00:34:48;99935.53;;;4.65;96.25
73860;BME280;62197;51.632;13.700;2023-12-20T00:37:13;99934.59;;;4.67;96.37
73860;BME280;62197;51.632;13.700;2023-12-20T00:39:39;99923.44;;;4.64;96.21
73860;BME280;62197;51.632;13.700;2023-12-20T00:42:04;99922.25;;;4.69;96.35
73860;BME280;62197;51.632;13.700;2023-12-20T00:44:30;99918.44;;;4.61;96.41
73860;BME280;62197;51.632;13.700;2023-12-20T00:46:55;99916.03;;;4.58;96.07
73860;BME280;62197;51.632;13.700;2023-12-20T00:49:20;99925.72;;;4.69;96.05
73860;BME280;62197;51.632;13.700;2023-12-20T00:51:46;99912.50;;;4.59;95.90
73860;BME280;62197;51.632;13.700;2023-12-20T00:54:13;99914.28;;;4.59;96.09
73860;BME280;62197;51.632;13.700;2023-12-20T00:56:38;99906.56;;;4.57;96.06
73860;BME280;62197;51.632;13.700;2023-12-20T00:59:04;99918.75;;;4.57;96.36
73860;BME280;62197;51.632;13.700;2023-12-20T01:01:29;99904.06;;;4.56;95.88
73860;BME280;62197;51.632;13.700;2023-12-20T01:03:54;99912.91;;;4.53;95.64
73860;BME280;62197;51.632;13.700;2023-12-20T01:06:20;99910.09;;;4.56;96.36
73860;BME280;62197;51.632;13.700;2023-12-20T01:08:46;99905.09;;;4.53;96.26
73860;BME280;62197;51.632;13.700;2023-12-20T01:11:11;99901.78;;;4.51;95.98
73860;BME280;62197;51.632;13.700;2023-12-20T01:13:36;99893.03;;;4.52;95.69
73860;BME280;62197;51.632;13.700;2023-12-20T01:16:02;99898.13;;;4.54;96.27
73860;BME280;62197;51.632;13.700;2023-12-20T01:18:27;99889.47;;;4.53;96.30
73860;BME280;62197;51.632;13.700;2023-12-20T01:20:53;99890.41;;;4.52;96.16
73860;BME280;62197;51.632;13.700;2023-12-20T01:23:18;99895.63;;;4.52;96.36
73860;BME280;62197;51.632;13.700;2023-12-20T01:25:44;99892.41;;;4.49;96.36
73860;BME280;62197;51.632;13.700;2023-12-20T01:28:09;99896.78;;;4.48;96.37
73860;BME280;62197;51.632;13.700;2023-12-20T01:30:35;99896.88;;;4.47;96.36
73860;BME280;62197;51.632;13.700;2023-12-20T01:33:00;99901.16;;;4.48;96.70
73860;BME280;62197;51.632;13.700;2023-12-20T01:35:26;99905.41;;;4.49;96.38
73860;BME280;62197;51.632;13.700;2023-12-20T01:37:51;99903.84;;;4.46;96.48
73860;BME280;62197;51.632;13.700;2023-12-20T01:40:18;99891.56;;;4.48;96.39
73860;BME280;62197;51.632;13.700;2023-12-20T01:42:44;99902.72;;;4.50;96.64
73860;BME280;62197;51.632;13.700;2023-12-20T01:45:09;99892.41;;;4.49;96.42
73860;BME280;62197;51.632;13.700;2023-12-20T01:47:35;99888.84;;;4.50;96.39
73860;BME280;62197;51.632;13.700;2023-12-20T01:50:01;99892.09;;;4.53;96.53
73860;BME280;62197;51.632;13.700;2023-12-20T01:52:29;99886.97;;;4.52;96.54
73860;BME280;62197;51.632;13.700;2023-12-20T01:54:55;99878.44;;;4.50;96.09
73860;BME280;62197;51.632;13.700;2023-12-20T01:57:26;99866.47;;;4.47;96.06
73860;BME280;62197;51.632;13.700;2023-12-20T01:59:52;99872.91;;;4.54;96.15
73860;BME280;62197;51.632;13.700;2023-12-20T02:02:18;99880.09;;;4.51;96.25
73860;BME280;62197;51.632;13.700;2023-12-20T02:04:44;99867.41;;;4.46;96.28
73860;BME280;62197;51.632;13.700;2023-12-20T02:07:09;99873.44;;;4.47;96.43
73860;BME280;62197;51.632;13.700;2023-12-20T02:09:36;99861.47;;;4.44;96.14
73860;BME280;62197;51.632;13.700;2023-12-20T02:12:03;99863.22;;;4.44;96.23
73860;BME280;62197;51.632;13.700;2023-12-20T02:14:29;99861.34;;;4.46;96.44
73860;BME280;62197;51.632;13.700;2023-12-20T02:16:57;99856.16;;;4.46;96.46
73860;BME280;62197;51.632;13.700;2023-12-20T02:19:22;99863.34;;;4.42;96.69
73860;BME280;62197;51.632;13.700;2023-12-20T02:21:48;99860.72;;;4.42;96.61
73860;BME280;62197;51.632;13.700;2023-12-20T02:24:14;99860.72;;;4.42;96.67
73860;BME280;62197;51.632;13.700;2023-12-20T02:26:40;99861.47;;;4.44;96.64
73860;BME280;62197;51.632;13.700;2023-12-20T02:29:06;99857.41;;;4.40;96.70
73860;BME280;62197;51.632;13.700;2023-12-20T02:31:31;99854.69;;;4.42;96.77
73860;BME280;62197;51.632;13.700;2023-12-20T02:33:57;99854.59;;;4.43;96.80
73860;BME280;62197;51.632;13.700;2023-12-20T02:36:22;99853.88;;;4.41;96.19
73860;BME280;62197;51.632;13.700;2023-12-20T02:38:48;99851.25;;;4.41;96.81
73860;BME280;62197;51.632;13.700;2023-12-20T02:41:13;99854.69;;;4.42;96.60
73860;BME280;62197;51.632;13.700;2023-12-20T02:43:41;99862.50;;;4.42;96.66
73860;BME280;62197;51.632;13.700;2023-12-20T02:46:06;99854.91;;;4.39;96.53
73860;BME280;62197;51.632;13.700;2023-12-20T02:48:31;99848.66;;;4.41;96.69
73860;BME280;62197;51.632;13.700;2023-12-20T02:50:57;99844.50;;;4.39;96.68
73860;BME280;62197;51.632;13.700;2023-12-20T02:53:22;99842.72;;;4.39;96.87
73860;BME280;62197;51.632;13.700;2023-12-20T02:55:47;99834.69;;;4.42;96.93
73860;BME280;62197;51.632;13.700;2023-12-20T02:58:13;99842.63;;;4.41;96.69
73860;BME280;62197;51.632;13.700;2023-12-20T03:00:38;99847.94;;;4.39;96.81
73860;BME280;62197;51.632;13.700;2023-12-20T03:03:04;99849.59;;;4.40;96.98
73860;BME280;62197;51.632;13.700;2023-12-20T03:05:29;99843.56;;;4.40;96.70
73860;BME280;62197;51.632;13.700;2023-12-20T03:07:54;99846.06;;;4.41;96.90
73860;BME280;62197;51.632;13.700;2023-12-20T03:10:20;99838.66;;;4.35;96.67
73860;BME280;62197;51.632;13.700;2023-12-20T03:12:45;99842.81;;;4.38;96.86
73860;BME280;62197;51.632;13.700;2023-12-20T03:15:10;99847.81;;;4.41;96.65
73860;BME280;62197;51.632;13.700;2023-12-20T03:17:36;99842.94;;;4.36;96.84
73860;BME280;62197;51.632;13.700;2023-12-20T03:20:01;99841.16;;;4.37;96.76
73860;BME280;62197;51.632;13.700;2023-12-20T03:22:27;99838.44;;;4.38;96.98
73860;BME280;62197;51.632;13.700;2023-12-20T03:24:52;99835.00;;;4.38;96.63
73860;BME280;62197;51.632;13.700;2023-12-20T03:27:17;99839.50;;;4.36;96.58
73860;BME280;62197;51.632;13.700;2023-12-20T03:29:43;99830.75;;;4.37;96.87
73860;BME280;62197;51.632;13.700;2023-12-20T03:32:08;99828.34;;;4.33;97.16
73860;BME280;62197;51.632;13.700;2023-12-20T03:34:34;99824.81;;;4.35;96.99
73860;BME280;62197;51.632;13.700;2023-12-20T03:36:59;99825.75;;;4.33;96.60
73860;BME280;62197;51.632;13.700;2023-12-20T03:39:24;99816.47;;;4.29;96.89
73860;BME280;62197;51.632;13.700;2023-12-20T03:41:50;99824.28;;;4.29;97.02
73860;BME280;62197;51.632;13.700;2023-12-20T03:44:15;99819.59;;;4.35;97.39
73860;BME280;62197;51.632;13.700;2023-12-20T03:46:41;99826.78;;;4.31;96.64
73860;BME280;62197;51.632;13.700;2023-12-20T03:49:06;99826.06;;;4.29;96.77
73860;BME280;62197;51.632;13.700;2023-12-20T03:51:31;99826.69;;;4.32;96.82
73860;BME280;62197;51.632;13.700;2023-12-20T03:53:57;99826.06;;;4.29;97.13
73860;BME280;62197;51.632;13.700;2023-12-20T03:56:22;99815.66;;;4.29;97.08
73860;BME280;62197;51.632;13.700;2023-12-20T03:58:47;99830.44;;;4.28;97.22
73860;BME280;62197;51.632;13.700;2023-12-20T04:01:13;99823.47;;;4.29;97.25
73860;BME280;62197;51.632;13.700;2023-12-20T04:03:38;99830.13;;;4.33;97.14
73860;BME280;62197;51.632;13.700;2023-12-20T04:06:04;99839.59;;;4.34;97.27
73860;BME280;62197;51.632;13.700;2023-12-20T04:08:29;99828.44;;;4.32;97.13
73860;BME280;62197;51.632;13.700;2023-12-20T04:10:55;99844.19;;;4.30;97.13
73860;BME280;62197;51.632;13.700;2023-12-20T04:13:20;99830.31;;;4.30;97.22
73860;BME280;62197;51.632;13.700;2023-12-20T04:15:45;99831.78;;;4.34;97.21
73860;BME280;62197;51.632;13.700;2023-12-20T04:18:11;99829.28;;;4.32;97.27
73860;BME280;62197;51.632;13.700;2023-12-20T04:20:36;99833.66;;;4.32;97.40
73860;BME280;62197;51.632;13.700;2023-12-20T04:23:02;99836.16;;;4.33;97.40
73860;BME280;62197;51.632;13.700;2023-12-20T04:25:27;99835.44;;;4.31;97.39
73860;BME280;62197;51.632;13.700;2023-12-20T04:27:52;99842.94;;;4.36;97.41
73860;BME280;62197;51.632;13.700;2023-12-20T04:30:18;99844.69;;;4.36;97.61
73860;BME280;62197;51.632;13.700;2023-12-20T04:32:43;99842.63;;;4.41;97.28
73860;BME280;62197;51.632;13.700;2023-12-20T04:35:08;99845.31;;;4.52;97.08
73860;BME280;62197;51.632;13.700;2023-12-20T04:37:34;99851.88;;;4.45;96.94
73860;BME280;62197;51.632;13.700;2023-12-20T04:39:59;99839.06;;;4.42;97.36
73860;BME280;62197;51.632;13.700;2023-12-20T04:42:24;99840.63;;;4.44;97.45
73860;BME280;62197;51.632;13.700;2023-12-20T04:44:50;99835.09;;;4.49;96.87
73860;BME280;62197;51.632;13.700;2023-12-20T04:47:15;99840.63;;;4.44;97.08
73860;BME280;62197;51.632;13.700;2023-12-20T04:49:41;99845.63;;;4.47;97.14
73860;BME280;62197;51.632;13.700;2023-12-20T04:52:06;99849.84;;;4.74;97.21
73860;BME280;62197;51.632;13.700;2023-12-20T04:54:31;99852.66;;;4.71;97.21
73860;BME280;62197;51.632;13.700;2023-12-20T04:56:57;99849.06;;;4.60;96.22
73860;BME280;62197;51.632;13.700;2023-12-20T04:59:22;99848.03;;;4.50;96.69
73860;BME280;62197;51.632;13.700;2023-12-20T05:01:47;99848.03;;;4.50;96.58
73860;BME280;62197;51.632;13.700;2023-12-20T05:04:13;99861.97;;;4.49;96.57
73860;BME280;62197;51.632;13.700;2023-12-20T05:06:38;99850.22;;;4.56;96.62
73860;BME280;62197;51.632;13.700;2023-12-20T05:09:03;99836.97;;;4.47;96.81
73860;BME280;62197;51.632;13.700;2023-12-20T05:11:29;99820.53;;;4.46;97.07
73860;BME280;62197;51.632;13.700;2023-12-20T05:13:54;99804.19;;;4.44;96.86
73860;BME280;62197;51.632;13.700;2023-12-20T05:16:20;99805.22;;;4.42;96.62
73860;BME280;62197;51.632;13.700;2023-12-20T05:18:47;99797.72;;;4.37;96.73
73860;BME280;62197;51.632;13.700;2023-12-20T05:21:13;99817.72;;;4.37;96.86
73860;BME280;62197;51.632;13.700;2023-12-20T05:23:38;99817.63;;;4.38;96.66
73860;BME280;62197;51.632;13.700;2023-12-20T05:26:03;99826.38;;;4.37;97.09
73860;BME280;62197;51.632;13.700;2023-12-20T05:28:29;99836.78;;;4.37;96.72
73860;BME280;62197;51.632;13.700;2023-12-20T05:30:54;99842.19;;;4.34;96.87
73860;BME280;62197;51.632;13.700;2023-12-20T05:33:19;99842.09;;;4.36;96.82
73860;BME280;62197;51.632;13.700;2023-12-20T05:35:45;99845.53;;;4.36;96.30
73860;BME280;62197;51.632;13.700;2023-12-20T05:38:10;99848.03;;;4.38;96.38
73860;BME280;62197;51.632;13.700;2023-12-20T05:40:35;99854.38;;;4.59;96.75
73860;BME280;62197;51.632;13.700;2023-12-20T05:43:01;99857.00;;;4.33;95.54
73860;BME280;62197;51.632;13.700;2023-12-20T05:45:27;99859.16;;;4.27;95.89
73860;BME280;62197;51.632;13.700;2023-12-20T05:47:52;99865.31;;;4.26;95.97
73860;BME280;62197;51.632;13.700;2023-12-20T05:50:17;99859.47;;;4.22;95.94
73860;BME280;62197;51.632;13.700;2023-12-20T05:52:43;99850.63;;;4.25;96.25
73860;BME280;62197;51.632;13.700;2023-12-20T05:55:08;99857.09;;;4.19;96.42
73860;BME280;62197;51.632;13.700;2023-12-20T05:57:35;99862.63;;;4.15;96.08
73860;BME280;62197;51.632;13.700;2023-12-20T06:00:00;99879.28;;;4.12;95.92
73860;BME280;62197;51.632;13.700;2023-12-20T06:02:25;99874.38;;;4.08;96.15
73860;BME280;62197;51.632;13.700;2023-12-20T06:04:50;99870.03;;;4.08;96.51
73860;BME280;62197;51.632;13.700;2023-12-20T06:07:16;99871.69;;;4.09;96.42
73860;BME280;62197;51.632;13.700;2023-12-20T06:09:41;99879.19;;;4.14;96.12
73860;BME280;62197;51.632;13.700;2023-12-20T06:12:07;99872.31;;;4.13;95.98
73860;BME280;62197;51.632;13.700;2023-12-20T06:14:33;99873.47;;;4.09;96.29
73860;BME280;62197;51.632;13.700;2023-12-20T06:16:58;99878.03;;;4.05;95.83
73860;BME280;62197;51.632;13.700;2023-12-20T06:19:24;99884.56;;;3.98;96.25
73860;BME280;62197;51.632;13.700;2023-12-20T06:21:49;99881.75;;;3.88;96.39
73860;BME280;62197;51.632;13.700;2023-12-20T06:24:14;99884.22;;;3.77;96.38
73860;BME280;62197;51.632;13.700;2023-12-20T06:26:40;99884.41;;;3.74;96.46
73860;BME280;62197;51.632;13.700;2023-12-20T06:29:05;99890.44;;;3.62;96.72
73860;BME280;62197;51.632;13.700;2023-12-20T06:31:31;99879.81;;;3.65;97.09
73860;BME280;62197;51.632;13.700;2023-12-20T06:33:58;99888.25;;;3.69;97.04
73860;BME280;62197;51.632;13.700;2023-12-20T06:36:25;99889.72;;;3.73;97.13
73860;BME280;62197;51.632;13.700;2023-12-20T06:38:51;99883.97;;;3.67;97.09
73860;BME280;62197;51.632;13.700;2023-12-20T06:41:16;99882.22;;;3.68;97.20
73860;BME280;62197;51.632;13.700;2023-12-20T06:43:42;99890.13;;;3.66;96.80
73860;BME280;62197;51.632;13.700;2023-12-20T06:46:07;99887.41;;;3.68;97.14
73860;BME280;62197;51.632;13.700;2023-12-20T06:48:32;99886.38;;;3.71;97.35
73860;BME280;62197;51.632;13.700;2023-12-20T06:51:00;99888.78;;;3.61;97.42
73860;BME280;62197;51.632;13.700;2023-12-20T06:53:25;99886.38;;;3.58;97.34
73860;BME280;62197;51.632;13.700;2023-12-20T06:55:51;99889.75;;;3.46;97.33
73860;BME280;62197;51.632;13.700;2023-12-20T06:58:16;99893.69;;;3.39;97.61
73860;BME280;62197;51.632;13.700;2023-12-20T07:00:41;99898.03;;;3.38;97.44
73860;BME280;62197;51.632;13.700;2023-12-20T07:03:07;99900.75;;;3.37;97.66
73860;BME280;62197;51.632;13.700;2023-12-20T07:05:32;99895.00;;;3.31;97.66
73860;BME280;62197;51.632;13.700;2023-12-20T07:07:58;99895.94;;;3.30;98.02
73860;BME280;62197;51.632;13.700;2023-12-20T07:10:24;99897.59;;;3.31;97.95
73860;BME280;62197;51.632;13.700;2023-12-20T07:12:49;99884.69;;;3.30;97.87
73860;BME280;62197;51.632;13.700;2023-12-20T07:15:16;99895.00;;;3.31;98.11
73860;BME280;62197;51.632;13.700;2023-12-20T07:17:41;99897.78;;;3.28;97.84
73860;BME280;62197;51.632;13.700;2023-12-20T07:20:07;99896.31;;;3.24;97.89
73860;BME280;62197;51.632;13.700;2023-12-20T07:22:36;99895.28;;;3.27;98.24
73860;BME280;62197;51.632;13.700;2023-12-20T07:25:01;99897.25;;;3.23;98.27
73860;BME280;62197;51.632;13.700;2023-12-20T07:27:27;99891.94;;;3.25;98.09
73860;BME280;62197;51.632;13.700;2023-12-20T07:29:52;99886.75;;;3.25;98.21
73860;BME280;62197;51.632;13.700;2023-12-20T07:32:18;99877.00;;;3.28;98.21
73860;BME280;62197;51.632;13.700;2023-12-20T07:34:43;99882.19;;;3.28;98.17
73860;BME280;62197;51.632;13.700;2023-12-20T07:37:09;99874.09;;;3.33;97.90
73860;BME280;62197;51.632;13.700;2023-12-20T07:39:39;99879.13;;;3.36;98.04
73860;BME280;62197;51.632;13.700;2023-12-20T07:42:05;99880.59;;;3.40;97.93
73860;BME280;62197;51.632;13.700;2023-12-20T07:44:30;99893.47;;;3.42;97.51
73860;BME280;62197;51.632;13.700;2023-12-20T07:46:56;99888.28;;;3.42;97.82
73860;BME280;62197;51.632;13.700;2023-12-20T07:49:23;99893.38;;;3.43;97.48
73860;BME280;62197;51.632;13.700;2023-12-20T07:51:48;99885.41;;;3.46;97.45
73860;BME280;62197;51.632;13.700;2023-12-20T07:54:13;99884.38;;;3.49;97.51
73860;BME280;62197;51.632;13.700;2023-12-20T07:56:39;99891.88;;;3.53;97.41
73860;BME280;62197;51.632;13.700;2023-12-20T07:59:05;99892.53;;;3.70;97.27
73860;BME280;62197;51.632;13.700;2023-12-20T08:01:30;99894.41;;;3.80;96.55
73860;BME280;62197;51.632;13.700;2023-12-20T08:03:56;99891.75;;;3.94;96.20
73860;BME280;62197;51.632;13.700;2023-12-20T08:06:22;99891.16;;;4.04;95.85
73860;BME280;62197;51.632;13.700;2023-12-20T08:08:47;99884.91;;;4.06;95.24
73860;BME280;62197;51.632;13.700;2023-12-20T08:11:13;99894.28;;;4.09;95.78
73860;BME280;62197;51.632;13.700;2023-12-20T08:13:38;99899.47;;;4.09;95.17
73860;BME280;62197;51.632;13.700;2023-12-20T08:16:03;99891.38;;;4.13;95.21
73860;BME280;62197;51.632;13.700;2023-12-20T08:18:29;99892.31;;;4.12;94.78
73860;BME280;62197;51.632;13.700;2023-12-20T08:20:55;99887.94;;;4.13;95.43
73860;BME280;62197;51.632;13.700;2023-12-20T08:23:20;99881.78;;;4.14;94.86
73860;BME280;62197;51.632;13.700;2023-12-20T08:25:46;99881.78;;;4.14;94.86
73860;BME280;62197;51.632;13.700;2023-12-20T08:28:11;99883.47;;;4.15;94.98
73860;BME280;62197;51.632;13.700;2023-12-20T08:30:37;99874.72;;;4.16;95.09
73860;BME280;62197;51.632;13.700;2023-12-20T08:33:02;99884.16;;;4.17;95.47
73860;BME280;62197;51.632;13.700;2023-12-20T08:35:27;99866.06;;;4.15;94.93
73860;BME280;62197;51.632;13.700;2023-12-20T08:37:53;99876.13;;;4.20;94.82
73860;BME280;62197;51.632;13.700;2023-12-20T08:40:18;99858.97;;;4.43;96.13
73860;BME280;62197;51.632;13.700;2023-12-20T08:42:43;99863.75;;;4.49;95.67
73860;BME280;62197;51.632;13.700;2023-12-20T08:45:09;99860.63;;;4.56;94.94
73860;BME280;62197;51.632;13.700;2023-12-20T08:47:35;99848.00;;;4.63;94.48
73860;BME280;62197;51.632;13.700;2023-12-20T08:50:02;99867.19;;;4.62;93.73
73860;BME280;62197;51.632;13.700;2023-12-20T08:52:27;99859.25;;;4.63;93.48
73860;BME280;62197;51.632;13.700;2023-12-20T08:54:54;99860.00;;;4.53;93.63
73860;BME280;62197;51.632;13.700;2023-12-20T08:57:20;99868.34;;;4.58;93.21
73860;BME280;62197;51.632;13.700;2023-12-20T08:59:47;99870.22;;;4.56;92.85
73860;BME280;62197;51.632;13.700;2023-12-20T09:02:13;99876.56;;;4.52;92.93
73860;BME280;62197;51.632;13.700;2023-12-20T09:04:39;99880.94;;;4.64;92.34
73860;BME280;62197;51.632;13.700;2023-12-20T09:07:04;99877.66;;;4.73;92.38
73860;BME280;62197;51.632;13.700;2023-12-20T09:09:29;99887.16;;;4.74;91.25
73860;BME280;62197;51.632;13.700;2023-12-20T09:11:57;99867.75;;;4.78;90.43
73860;BME280;62197;51.632;13.700;2023-12-20T09:14:23;99876.34;;;4.68;91.02
73860;BME280;62197;51.632;13.700;2023-12-20T09:16:48;99877.28;;;4.67;91.14
73860;BME280;62197;51.632;13.700;2023-12-20T09:19:16;99875.69;;;4.77;91.04
73860;BME280;62197;51.632;13.700;2023-12-20T09:21:41;99876.72;;;4.74;91.06
73860;BME280;62197;51.632;13.700;2023-12-20T09:24:07;99866.81;;;4.79;89.63
73860;BME280;62197;51.632;13.700;2023-12-20T09:26:33;99860.69;;;5.17;89.40
73860;BME280;62197;51.632;13.700;2023-12-20T09:28:59;99871.53;;;5.35;89.06
73860;BME280;62197;51.632;13.700;2023-12-20T09:31:24;99855.50;;;5.28;88.02
73860;BME280;62197;51.632;13.700;2023-12-20T09:33:49;99854.84;;;5.13;87.56
73860;BME280;62197;51.632;13.700;2023-12-20T09:36:15;99848.69;;;5.14;89.36
73860;BME280;62197;51.632;13.700;2023-12-20T09:38:40;99842.13;;;5.32;87.22
73860;BME280;62197;51.632;13.700;2023-12-20T09:41:05;99830.47;;;5.25;86.12
73860;BME280;62197;51.632;13.700;2023-12-20T09:43:35;99848.78;;;5.37;85.23
73860;BME280;62197;51.632;13.700;2023-12-20T09:46:04;99845.84;;;5.76;85.08
73860;BME280;62197;51.632;13.700;2023-12-20T09:48:31;99846.28;;;5.59;85.26
73860;BME280;62197;51.632;13.700;2023-12-20T09:50:57;99844.94;;;5.29;84.96
73860;BME280;62197;51.632;13.700;2023-12-20T09:53:22;99838.22;;;5.62;85.60
73860;BME280;62197;51.632;13.700;2023-12-20T09:55:56;99824.31;;;5.50;84.17
73860;BME280;62197;51.632;13.700;2023-12-20T09:58:23;99844.34;;;5.26;84.99
73860;BME280;62197;51.632;13.700;2023-12-20T10:00:49;99829.19;;;5.31;85.33
73860;BME280;62197;51.632;13.700;2023-12-20T10:03:15;99838.84;;;5.42;83.75
73860;BME280;62197;51.632;13.700;2023-12-20T10:05:43;99837.25;;;5.52;83.31
73860;BME280;62197;51.632;13.700;2023-12-20T10:08:09;99830.50;;;5.60;82.35
73860;BME280;62197;51.632;13.700;2023-12-20T10:10:35;99831.50;;;5.71;82.27
73860;BME280;62197;51.632;13.700;2023-12-20T10:13:07;99836.78;;;5.58;82.40
73860;BME280;62197;51.632;13.700;2023-12-20T10:15:36;99797.28;;;5.51;82.49
73860;BME280;62197;51.632;13.700;2023-12-20T10:18:02;99824.91;;;5.54;82.99
73860;BME280;62197;51.632;13.700;2023-12-20T10:20:27;99821.03;;;5.59;83.75
73860;BME280;62197;51.632;13.700;2023-12-20T10:22:55;99808.75;;;5.49;83.50
73860;BME280;62197;51.632;13.700;2023-12-20T10:25:21;99817.03;;;5.43;83.79
73860;BME280;62197;51.632;13.700;2023-12-20T10:27:46;99805.78;;;5.42;84.18
73860;BME280;62197;51.632;13.700;2023-12-20T10:30:13;99805.38;;;5.36;83.36
73860;BME280;62197;51.632;13.700;2023-12-20T10:32:38;99807.88;;;5.37;82.53
73860;BME280;62197;51.632;13.700;2023-12-20T10:35:04;99806.84;;;5.40;81.20
73860;BME280;62197;51.632;13.700;2023-12-20T10:37:29;99798.91;;;5.41;80.56
73860;BME280;62197;51.632;13.700;2023-12-20T10:39:55;99800.09;;;5.48;81.95
73860;BME280;62197;51.632;13.700;2023-12-20T10:42:28;99805.00;;;5.53;80.99
73860;BME280;62197;51.632;13.700;2023-12-20T10:44:54;99775.81;;;5.48;80.18
73860;BME280;62197;51.632;13.700;2023-12-20T10:47:20;99797.84;;;5.44;81.58
73860;BME280;62197;51.632;13.700;2023-12-20T10:49:46;99781.41;;;5.54;80.92
73860;BME280;62197;51.632;13.700;2023-12-20T10:52:12;99771.22;;;5.62;80.65
73860;BME280;62197;51.632;13.700;2023-12-20T10:54:38;99774.56;;;5.64;80.05
73860;BME280;62197;51.632;13.700;2023-12-20T10:57:06;99780.22;;;5.58;80.46
73860;BME280;62197;51.632;13.700;2023-12-20T10:59:33;99766.25;;;5.71;80.00
73860;BME280;62197;51.632;13.700;2023-12-20T11:02:02;99771.44;;;6.17;78.65
73860;BME280;62197;51.632;13.700;2023-12-20T11:04:36;99755.50;;;6.42;77.99
73860;BME280;62197;51.632;13.700;2023-12-20T11:07:19;99760.00;;;6.51;76.52
73860;BME280;62197;51.632;13.700;2023-12-20T11:09:58;99765.75;;;6.23;77.57
73860;BME280;62197;51.632;13.700;2023-12-20T11:12:46;99749.09;;;6.24;78.22
73860;BME280;62197;51.632;13.700;2023-12-20T11:15:13;99729.06;;;6.13;77.66
73860;BME280;62197;51.632;13.700;2023-12-20T11:17:40;99747.81;;;6.18;77.90
73860;BME280;62197;51.632;13.700;2023-12-20T11:20:07;99755.66;;;6.18;78.08
73860;BME280;62197;51.632;13.700;2023-12-20T11:22:35;99750.31;;;6.20;77.18
73860;BME280;62197;51.632;13.700;2023-12-20T11:25:06;99736.53;;;6.18;76.48
73860;BME280;62197;51.632;13.700;2023-12-20T11:27:33;99731.91;;;6.21;76.50
73860;BME280;62197;51.632;13.700;2023-12-20T11:29:59;99730.13;;;6.11;76.58
73860;BME280;62197;51.632;13.700;2023-12-20T11:34:55;99720.53;;;6.11;76.06
73860;BME280;62197;51.632;13.700;2023-12-20T11:37:21;99726.69;;;6.10;77.54
73860;BME280;62197;51.632;13.700;2023-12-20T11:39:54;99724.44;;;6.06;77.27
73860;BME280;62197;51.632;13.700;2023-12-20T11:42:20;99722.88;;;6.03;76.69
73860;BME280;62197;51.632;13.700;2023-12-20T11:44:45;99723.38;;;6.08;76.76
73860;BME280;62197;51.632;13.700;2023-12-20T11:47:11;99724.56;;;6.04;76.23
73860;BME280;62197;51.632;13.700;2023-12-20T11:49:37;99706.03;;;6.07;75.78
73860;BME280;62197;51.632;13.700;2023-12-20T11:52:03;99709.00;;;6.03;76.72
73860;BME280;62197;51.632;13.700;2023-12-20T11:54:30;99697.63;;;6.04;76.28
73860;BME280;62197;51.632;13.700;2023-12-20T11:56:55;99700.81;;;6.18;75.63
73860;BME280;62197;51.632;13.700;2023-12-20T11:59:21;99692.88;;;6.09;74.53
73860;BME280;62197;51.632;13.700;2023-12-20T12:01:52;99689.91;;;6.13;74.69
73860;BME280;62197;51.632;13.700;2023-12-20T12:04:18;99706.63;;;6.11;74.43
73860;BME280;62197;51.632;13.700;2023-12-20T12:06:44;99687.66;;;6.09;74.68
73860;BME280;62197;51.632;13.700;2023-12-20T12:09:10;99692.75;;;6.10;74.78
73860;BME280;62197;51.632;13.700;2023-12-20T12:11:35;99688.47;;;6.09;74.31
73860;BME280;62197;51.632;13.700;2023-12-20T12:14:01;99690.84;;;6.12;74.53
73860;BME280;62197;51.632;13.700;2023-12-20T12:16:26;99677.66;;;6.14;74.02
73860;BME280;62197;51.632;13.700;2023-12-20T12:18:58;99657.03;;;6.11;74.38
73860;BME280;62197;51.632;13.700;2023-12-20T12:21:24;99663.19;;;6.21;74.66
73860;BME280;62197;51.632;13.700;2023-12-20T12:23:49;99653.22;;;6.15;73.48
73860;BME280;62197;51.632;13.700;2023-12-20T12:26:15;99636.13;;;6.11;73.47
73860;BME280;62197;51.632;13.700;2023-12-20T12:28:40;99663.91;;;6.12;74.34
73860;BME280;62197;51.632;13.700;2023-12-20T12:31:13;99657.84;;;6.11;74.54
73860;BME280;62197;51.632;13.700;2023-12-20T12:33:40;99656.06;;;6.12;73.63
73860;BME280;62197;51.632;13.700;2023-12-20T12:36:07;99627.34;;;6.12;73.18
73860;BME280;62197;51.632;13.700;2023-12-20T12:38:33;99650.50;;;6.16;73.20
73860;BME280;62197;51.632;13.700;2023-12-20T12:41:00;99643.84;;;6.12;74.18
73860;BME280;62197;51.632;13.700;2023-12-20T12:43:25;99643.03;;;6.12;74.42
73860;BME280;62197;51.632;13.700;2023-12-20T12:45:51;99640.66;;;6.09;74.05
73860;BME280;62197;51.632;13.700;2023-12-20T12:48:17;99629.50;;;6.07;74.80
73860;BME280;62197;51.632;13.700;2023-12-20T12:50:42;99629.97;;;6.01;74.82
73860;BME280;62197;51.632;13.700;2023-12-20T12:53:08;99625.34;;;6.04;74.89
73860;BME280;62197;51.632;13.700;2023-12-20T12:55:35;99629.75;;;6.04;74.19